createdAt,value
2018-07-30T00:02:03.931Z,70.49
2018-07-30T00:04:32.007Z,70.98
2018-07-30T00:07:00.064Z,70.88
2018-07-30T00:09:28.135Z,70.98
2018-07-30T00:11:56.278Z,71.02
2018-07-30T00:14:24.338Z,71.01
2018-07-30T00:16:52.503Z,71.24
2018-07-30T00:19:20.571Z,72.06
2018-07-30T00:21:48.720Z,72.11
2018-07-30T00:24:16.875Z,71.83
2018-07-30T00:26:44.891Z,71.32
2018-07-30T00:29:12.927Z,71.88
2018-07-30T00:31:40.999Z,71.85
2018-07-30T00:34:09.066Z,72.05
2018-07-30T00:36:37.142Z,72.85
2018-07-30T00:39:08.595Z,72.58
2018-07-30T00:41:36.698Z,72.68
2018-07-30T00:44:04.735Z,72.29
2018-07-30T00:46:32.784Z,72.58
2018-07-30T00:49:00.827Z,72.91
2018-07-30T00:51:29.021Z,72.93
2018-07-30T00:53:57.083Z,73.39
2018-07-30T00:56:25.150Z,73.51
2018-07-30T00:58:53.437Z,73.60
2018-07-30T01:01:21.524Z,73.41
2018-07-30T01:03:49.611Z,73.43
2018-07-30T01:06:17.657Z,73.56
2018-07-30T01:08:45.711Z,73.55
2018-07-30T01:11:13.764Z,73.91
2018-07-30T01:13:41.820Z,73.98
2018-07-30T01:16:09.871Z,73.63
2018-07-30T01:18:37.926Z,74.09
2018-07-30T01:21:06.164Z,74.06
2018-07-30T01:23:34.237Z,74.53
2018-07-30T01:26:07.716Z,74.78
2018-07-30T01:28:35.794Z,74.58
2018-07-30T01:31:03.839Z,74.66
2018-07-30T01:33:31.923Z,75.08
2018-07-30T01:35:59.971Z,75.64
2018-07-30T01:38:28.043Z,74.71
2018-07-30T01:40:56.105Z,75.37
2018-07-30T01:43:24.175Z,75.47
2018-07-30T01:45:52.232Z,75.55
2018-07-30T01:48:20.287Z,74.63
2018-07-30T01:50:48.319Z,75.77
2018-07-30T01:53:16.385Z,77.01
2018-07-30T01:55:44.441Z,77.20
2018-07-30T01:58:12.603Z,78.07
2018-07-30T02:00:40.663Z,77.73
2018-07-30T02:03:08.729Z,77.84
2018-07-30T02:05:36.787Z,77.67
2018-07-30T02:08:05.059Z,78.79
2018-07-30T02:10:33.127Z,78.28
2018-07-30T02:13:01.181Z,77.35
2018-07-30T02:15:29.222Z,77.96
2018-07-30T02:17:57.299Z,76.70
2018-07-30T02:20:25.427Z,77.42
2018-07-30T02:22:53.488Z,76.57
2018-07-30T02:25:21.567Z,77.19
2018-07-30T02:27:49.645Z,76.41
2018-07-30T02:30:17.693Z,76.88
2018-07-30T02:32:45.744Z,77.55
2018-07-30T02:35:13.968Z,77.08
2018-07-30T02:37:42.037Z,76.88
2018-07-30T02:40:10.205Z,76.97
2018-07-30T02:42:38.258Z,77.00
2018-07-30T02:45:06.375Z,77.29
2018-07-30T02:47:34.447Z,78.32
2018-07-30T02:50:02.780Z,79.11
2018-07-30T02:52:31.156Z,78.74
2018-07-30T02:54:59.212Z,78.31
2018-07-30T02:57:27.431Z,77.93
2018-07-30T02:59:55.480Z,78.96
2018-07-30T03:02:23.529Z,78.25
2018-07-30T03:04:51.579Z,77.91
2018-07-30T03:07:19.651Z,78.11
2018-07-30T03:09:47.895Z,79.22
2018-07-30T03:12:15.945Z,78.25
2018-07-30T03:14:44.040Z,77.98
2018-07-30T03:17:12.079Z,77.93
2018-07-30T03:19:40.164Z,78.05
2018-07-30T03:22:08.215Z,77.95
2018-07-30T03:24:36.323Z,77.71
2018-07-30T03:27:04.415Z,78.78
2018-07-30T03:29:32.482Z,79.53
2018-07-30T03:32:00.521Z,79.69
2018-07-30T03:34:28.599Z,79.36
2018-07-30T03:36:56.647Z,78.98
2018-07-30T03:39:24.707Z,81.06
2018-07-30T03:41:52.759Z,81.17
2018-07-30T03:44:20.893Z,80.69
2018-07-30T03:46:48.927Z,79.69
2018-07-30T03:49:16.998Z,79.79
2018-07-30T03:51:45.123Z,79.71
2018-07-30T03:54:13.195Z,79.47
2018-07-30T03:56:41.271Z,79.91
2018-07-30T03:59:09.475Z,79.01
2018-07-30T04:01:37.519Z,80.65
2018-07-30T04:04:05.850Z,80.42
2018-07-30T04:06:34.017Z,80.14
2018-07-30T04:09:02.140Z,80.10
2018-07-30T04:11:30.222Z,79.61
2018-07-30T04:13:58.283Z,80.18
2018-07-30T04:16:26.522Z,80.52
2018-07-30T04:18:54.584Z,79.97
2018-07-30T04:21:22.650Z,80.93
2018-07-30T04:23:50.714Z,81.44
2018-07-30T04:26:18.760Z,80.59
2018-07-30T04:28:46.811Z,80.40
2018-07-30T04:31:14.886Z,80.74
2018-07-30T04:33:42.926Z,80.37
2018-07-30T04:36:10.978Z,80.78
2018-07-30T04:38:39.047Z,81.30
2018-07-30T04:41:07.411Z,81.80
2018-07-30T04:43:35.534Z,81.54
2018-07-30T04:46:03.583Z,81.46
2018-07-30T04:48:31.657Z,81.36
2018-07-30T04:50:59.767Z,80.94
2018-07-30T04:53:27.809Z,80.01
2018-07-30T04:55:55.886Z,79.17
2018-07-30T04:58:23.931Z,78.68
2018-07-30T05:00:51.987Z,76.48
2018-07-30T05:03:20.154Z,77.63
2018-07-30T05:05:48.201Z,78.49
2018-07-30T05:08:16.300Z,78.54
2018-07-30T05:10:44.423Z,78.23
2018-07-30T05:13:12.503Z,78.08
2018-07-30T05:15:40.665Z,78.17
2018-07-30T05:18:08.715Z,77.79
2018-07-30T05:20:36.832Z,77.68
2018-07-30T05:23:04.908Z,77.29
2018-07-30T05:25:33.016Z,77.38
2018-07-30T05:28:01.123Z,77.37
2018-07-30T05:30:29.178Z,76.85
2018-07-30T05:32:57.323Z,74.35
2018-07-30T05:35:25.524Z,73.78
2018-07-30T05:37:53.575Z,71.47
2018-07-30T05:40:21.665Z,70.61
2018-07-30T05:42:49.787Z,68.18
2018-07-30T05:45:17.849Z,67.93
2018-07-30T05:47:46.240Z,68.23
2018-07-30T05:50:14.463Z,67.60
2018-07-30T05:52:42.759Z,67.25
2018-07-30T05:55:10.919Z,66.73
2018-07-30T05:57:39.031Z,64.19
2018-07-30T06:00:07.471Z,64.16
2018-07-30T06:02:35.600Z,63.98
2018-07-30T06:05:03.718Z,64.20
2018-07-30T06:07:31.823Z,63.93
2018-07-30T06:09:59.924Z,64.24
2018-07-30T06:12:27.963Z,62.62
2018-07-30T06:14:56.123Z,63.18
2018-07-30T06:17:24.291Z,62.91
2018-07-30T06:19:52.361Z,62.43
2018-07-30T06:22:20.445Z,61.64
2018-07-30T06:24:48.541Z,61.93
2018-07-30T06:27:16.708Z,62.45
2018-07-30T06:29:44.754Z,61.08
2018-07-30T06:32:12.871Z,61.09
2018-07-30T06:34:40.968Z,59.65
2018-07-30T06:37:10.472Z,59.92
2018-07-30T06:39:42.608Z,58.38
2018-07-30T06:42:10.764Z,58.22
2018-07-30T06:44:40.587Z,58.12
2018-07-30T06:47:10.892Z,58.23
2018-07-30T06:49:47.841Z,57.90
2018-07-30T06:52:16.844Z,57.12
2018-07-30T06:54:44.991Z,57.42
2018-07-30T06:57:13.059Z,57.31
2018-07-30T06:59:41.170Z,57.56
2018-07-30T07:02:09.320Z,57.15
2018-07-30T07:04:37.374Z,57.35
2018-07-30T07:07:05.454Z,56.71
2018-07-30T07:09:33.520Z,56.43
2018-07-30T07:12:01.601Z,54.99
2018-07-30T07:14:29.659Z,54.83
2018-07-30T07:16:57.823Z,55.07
2018-07-30T07:19:25.932Z,53.98
2018-07-30T07:21:54.062Z,53.73
2018-07-30T07:24:22.114Z,53.15
2018-07-30T07:26:50.192Z,53.76
2018-07-30T07:29:18.291Z,53.42
2018-07-30T07:31:46.375Z,53.15
2018-07-30T07:34:14.435Z,53.43
2018-07-30T07:36:42.519Z,53.05
2018-07-30T07:39:11.460Z,54.23
2018-07-30T07:41:39.783Z,52.65
2018-07-30T07:44:07.903Z,52.80
2018-07-30T07:46:36.116Z,52.84
2018-07-30T07:49:04.332Z,52.77
2018-07-30T07:51:32.515Z,52.04
2018-07-30T07:54:00.606Z,51.86
2018-07-30T07:56:28.683Z,52.87
2018-07-30T07:58:56.847Z,53.24
2018-07-30T08:01:24.898Z,52.90
2018-07-30T08:03:53.364Z,52.49
2018-07-30T08:06:21.589Z,51.02
2018-07-30T08:08:49.566Z,50.79
2018-07-30T08:11:17.639Z,51.37
2018-07-30T08:13:45.795Z,50.19
2018-07-30T08:16:13.932Z,50.77
2018-07-30T08:18:42.047Z,49.98
2018-07-30T08:21:10.135Z,50.52
2018-07-30T08:23:38.222Z,50.64
2018-07-30T08:26:06.327Z,50.43
2018-07-30T08:28:34.492Z,50.55
2018-07-30T08:31:02.614Z,51.01
2018-07-30T08:33:30.695Z,50.54
2018-07-30T08:35:58.779Z,50.49
2018-07-30T08:38:26.877Z,50.53
2018-07-30T08:40:54.949Z,50.85
2018-07-30T08:43:23.040Z,50.00
2018-07-30T08:45:51.171Z,49.38
2018-07-30T08:48:19.271Z,49.50
2018-07-30T08:50:47.552Z,50.60
2018-07-30T08:53:15.668Z,50.80
2018-07-30T08:55:43.810Z,49.90
2018-07-30T08:58:11.916Z,49.21
2018-07-30T09:00:40.028Z,49.78
2018-07-30T09:03:08.213Z,48.38
2018-07-30T09:05:36.547Z,46.64
2018-07-30T09:08:04.875Z,48.35
2018-07-30T09:10:32.997Z,47.96
2018-07-30T09:13:02.972Z,49.07
2018-07-30T09:15:31.860Z,49.18
2018-07-30T09:17:59.922Z,47.10
2018-07-30T09:20:28.071Z,46.51
2018-07-30T09:22:56.175Z,46.37
2018-07-30T09:25:24.292Z,46.89
2018-07-30T09:27:52.344Z,47.16
2018-07-30T09:30:20.431Z,44.75
2018-07-30T09:32:48.569Z,43.89
2018-07-30T09:35:16.723Z,43.95
2018-07-30T09:37:44.796Z,42.66
2018-07-30T09:40:12.901Z,43.18
2018-07-30T09:42:40.936Z,42.35
2018-07-30T09:45:08.983Z,40.35
2018-07-30T09:47:37.049Z,42.38
2018-07-30T09:50:05.431Z,42.92
2018-07-30T09:52:33.605Z,42.32
2018-07-30T09:55:01.663Z,42.69
2018-07-30T09:57:29.745Z,43.39
2018-07-30T09:59:57.782Z,42.96
2018-07-30T10:02:25.844Z,43.09
2018-07-30T10:04:53.906Z,43.50
2018-07-30T10:07:22.058Z,41.91
2018-07-30T10:09:50.079Z,41.97
2018-07-30T10:12:18.247Z,41.92
2018-07-30T10:14:46.301Z,40.80
2018-07-30T10:17:14.392Z,38.91
2018-07-30T10:19:42.484Z,37.10
2018-07-30T10:22:10.553Z,38.80
2018-07-30T10:24:38.613Z,40.14
2018-07-30T10:27:06.659Z,39.43
2018-07-30T10:29:34.917Z,39.42
2018-07-30T10:32:02.959Z,37.72
2018-07-30T10:34:31.086Z,37.82
2018-07-30T10:36:59.196Z,37.60
2018-07-30T10:39:27.223Z,36.79
2018-07-30T10:41:55.551Z,37.37
2018-07-30T10:44:23.830Z,37.96
2018-07-30T10:46:51.996Z,38.88
2018-07-30T10:49:20.138Z,38.23
2018-07-30T10:51:48.361Z,38.91
2018-07-30T10:54:16.508Z,37.37
2018-07-30T10:56:44.583Z,37.09
2018-07-30T10:59:12.647Z,37.16
2018-07-30T11:01:40.691Z,37.42
2018-07-30T11:04:08.770Z,37.12
2018-07-30T11:06:36.845Z,37.49
2018-07-30T11:09:07.513Z,33.78
2018-07-30T11:11:35.595Z,34.72
2018-07-30T11:14:03.664Z,34.58
2018-07-30T11:16:31.730Z,34.65
2018-07-30T11:18:59.770Z,33.73
2018-07-30T11:21:27.823Z,34.90
2018-07-30T11:23:56.021Z,33.63
2018-07-30T11:26:24.074Z,32.86
2018-07-30T11:28:52.188Z,33.58
2018-07-30T11:31:20.233Z,33.71
2018-07-30T11:33:48.306Z,34.21
2018-07-30T11:36:16.442Z,33.82
2018-07-30T11:38:44.520Z,33.07
2018-07-30T11:41:32.726Z,32.57
2018-07-30T11:44:16.142Z,32.65
2018-07-30T11:46:56.026Z,32.72
2018-07-30T11:52:20.009Z,32.29
2018-07-30T11:54:53.415Z,31.17
2018-07-30T11:57:40.420Z,32.17
2018-07-30T12:00:10.729Z,31.39
2018-07-30T12:02:39.838Z,31.37
2018-07-30T12:05:24.276Z,31.18
2018-07-30T12:08:20.274Z,31.71
2018-07-30T12:10:56.923Z,31.10
2018-07-30T12:13:48.240Z,32.44
2018-07-30T12:16:22.903Z,31.04
2018-07-30T12:19:06.755Z,30.55
2018-07-30T12:21:37.046Z,31.04
2018-07-30T12:28:25.220Z,30.04
2018-07-30T12:31:10.661Z,31.13
2018-07-30T12:34:02.323Z,30.74
2018-07-30T12:36:31.968Z,30.59
2018-07-30T12:39:17.462Z,30.44
2018-07-30T12:41:56.624Z,29.40
2018-07-30T12:45:13.736Z,29.18
2018-07-30T12:47:47.551Z,29.44
2018-07-30T12:50:29.215Z,29.25
2018-07-30T12:55:54.276Z,29.38
2018-07-30T12:58:28.560Z,29.97
2018-07-30T13:01:01.260Z,29.57
2018-07-30T13:03:31.327Z,29.63
2018-07-30T13:10:00.236Z,29.53
2018-07-30T13:12:31.496Z,28.15
2018-07-30T13:15:11.267Z,27.34
2018-07-30T13:17:58.663Z,28.45
2018-07-30T13:20:32.049Z,27.86
2018-07-30T13:23:20.182Z,27.94
2018-07-30T13:25:50.633Z,28.70
2018-07-30T13:31:29.436Z,28.21
2018-07-30T13:34:07.332Z,27.29
2018-07-30T13:36:35.478Z,26.32
2018-07-30T13:39:03.928Z,27.08
2018-07-30T13:41:32.015Z,25.31
2018-07-30T13:44:00.091Z,26.75
2018-07-30T13:46:28.218Z,26.21
2018-07-30T13:48:56.218Z,26.10
2018-07-30T13:51:24.322Z,24.97
2018-07-30T13:53:52.432Z,25.45
2018-07-30T13:56:20.483Z,25.48
2018-07-30T13:58:48.555Z,25.92
2018-07-30T14:01:16.647Z,26.21
2018-07-30T14:03:44.729Z,26.05
2018-07-30T14:06:12.932Z,25.58
2018-07-30T14:08:40.905Z,27.37
2018-07-30T14:11:09.190Z,25.48
2018-07-30T14:13:37.283Z,26.35
2018-07-30T14:16:05.427Z,26.59
2018-07-30T14:18:33.506Z,25.53
2018-07-30T14:21:01.571Z,26.46
2018-07-30T14:23:29.649Z,26.12
2018-07-30T14:25:57.721Z,26.75
2018-07-30T14:28:25.875Z,26.31
2018-07-30T14:30:53.890Z,25.50
2018-07-30T14:33:22.030Z,25.67
2018-07-30T14:35:50.091Z,27.57
2018-07-30T14:38:18.150Z,26.53
2018-07-30T14:40:46.205Z,27.35
2018-07-30T14:43:14.289Z,26.93
2018-07-30T14:45:42.328Z,27.36
2018-07-30T14:48:10.385Z,26.99
2018-07-30T14:50:38.583Z,26.84
2018-07-30T14:53:06.754Z,26.00
2018-07-30T14:55:34.856Z,26.54
2018-07-30T14:58:03.008Z,26.17
2018-07-30T15:00:31.130Z,25.66
2018-07-30T15:02:59.239Z,26.31
2018-07-30T15:05:27.367Z,26.39
2018-07-30T15:07:55.460Z,27.44
2018-07-30T15:10:23.569Z,27.49
2018-07-30T15:12:51.655Z,25.38
2018-07-30T15:15:19.719Z,26.20
2018-07-30T15:17:47.793Z,26.14
2018-07-30T15:20:15.846Z,26.60
2018-07-30T15:22:44.426Z,26.69
2018-07-30T15:25:12.589Z,24.40
2018-07-30T15:27:40.679Z,25.35
2018-07-30T15:30:08.776Z,25.52
2018-07-30T15:32:36.872Z,26.87
2018-07-30T15:35:04.963Z,27.97
2018-07-30T15:37:33.226Z,27.09
2018-07-30T15:40:01.540Z,26.72
2018-07-30T15:42:29.757Z,28.53
2018-07-30T15:44:57.922Z,28.05
2018-07-30T15:47:26.015Z,27.85
2018-07-30T15:49:54.083Z,28.36
2018-07-30T15:52:22.268Z,27.52
2018-07-30T15:54:50.516Z,27.06
2018-07-30T15:57:18.499Z,27.09
2018-07-30T15:59:46.623Z,27.52
2018-07-30T16:02:14.737Z,28.70
2018-07-30T16:04:46.141Z,28.25
2018-07-30T16:07:14.689Z,28.08
2018-07-30T16:09:42.803Z,28.54
2018-07-30T16:12:11.060Z,29.16
2018-07-30T16:14:39.094Z,30.97
2018-07-30T16:17:07.151Z,28.74
2018-07-30T16:19:35.247Z,27.94
2018-07-30T16:22:03.338Z,29.84
2018-07-30T16:24:31.608Z,30.09
2018-07-30T16:26:59.684Z,27.92
2018-07-30T16:29:27.746Z,28.04
2018-07-30T16:31:55.845Z,29.18
2018-07-30T16:34:23.967Z,28.70
2018-07-30T16:36:52.021Z,27.23
2018-07-30T16:39:20.091Z,26.66
2018-07-30T16:41:48.168Z,29.71
2018-07-30T16:44:16.274Z,28.61
2018-07-30T16:46:44.356Z,26.98
2018-07-30T16:49:12.406Z,28.77
2018-07-30T16:51:40.460Z,28.30
2018-07-30T16:54:08.531Z,29.19
2018-07-30T16:56:36.577Z,29.13
2018-07-30T16:59:04.671Z,31.87
2018-07-30T17:01:32.728Z,29.33
2018-07-30T17:04:00.822Z,27.55
2018-07-30T17:06:28.874Z,28.92
2018-07-30T17:08:56.982Z,29.34
2018-07-30T17:11:25.051Z,29.21
2018-07-30T17:13:53.184Z,29.38
2018-07-30T17:16:21.258Z,29.92
2018-07-30T17:18:49.342Z,29.67
2018-07-30T17:21:17.548Z,29.19
2018-07-30T17:23:45.671Z,26.24
2018-07-30T17:26:13.722Z,27.71
2018-07-30T17:28:41.803Z,27.63
2018-07-30T17:31:09.879Z,27.72
2018-07-30T17:33:38.062Z,28.85
2018-07-30T17:36:06.144Z,29.41
2018-07-30T17:38:34.226Z,28.76
2018-07-30T17:41:02.453Z,28.58
2018-07-30T17:43:30.523Z,27.18
2018-07-30T17:45:58.614Z,28.00
2018-07-30T17:48:26.681Z,29.55
2018-07-30T17:53:34.429Z,31.13
2018-07-30T17:56:14.875Z,32.60
2018-07-30T17:58:48.352Z,32.50
2018-07-30T18:01:17.554Z,33.14
2018-07-30T18:03:48.091Z,33.67
2018-07-30T18:06:16.986Z,34.66
2018-07-30T18:08:46.336Z,37.92
2018-07-30T18:11:16.743Z,38.44
2018-07-30T18:14:02.542Z,35.58
2018-07-30T18:19:07.877Z,39.03
2018-07-30T18:21:46.095Z,38.69
2018-07-30T18:24:14.896Z,40.35
2018-07-30T18:26:44.608Z,41.31
2018-07-30T18:29:12.947Z,39.88
2018-07-30T18:31:47.051Z,39.88
2018-07-30T18:34:22.486Z,40.23
2018-07-30T18:36:52.643Z,40.60
2018-07-30T18:39:22.646Z,39.13
2018-07-30T18:41:52.262Z,39.17
2018-07-30T18:44:32.803Z,38.57
2018-07-30T18:47:01.914Z,40.33
2018-07-30T18:49:30.701Z,40.42
2018-07-30T18:52:01.247Z,40.61
2018-07-30T18:54:32.213Z,41.06
2018-07-30T18:57:05.731Z,41.81
2018-07-30T18:59:39.143Z,40.79
2018-07-30T19:02:07.790Z,40.92
2018-07-30T19:04:37.873Z,42.52
2018-07-30T19:07:09.075Z,42.33
2018-07-30T19:09:37.270Z,42.08
2018-07-30T19:12:07.020Z,43.28
2018-07-30T19:14:35.219Z,43.78
2018-07-30T19:17:03.916Z,43.35
2018-07-30T19:19:33.682Z,44.02
2018-07-30T19:22:04.904Z,44.03
2018-07-30T19:24:36.065Z,45.69
2018-07-30T19:27:04.251Z,44.32
2018-07-30T19:29:33.551Z,45.35
2018-07-30T19:32:06.155Z,44.90
2018-07-30T19:34:34.397Z,45.04
2018-07-30T19:37:04.321Z,46.94
2018-07-30T19:39:34.262Z,46.56
2018-07-30T19:42:03.394Z,46.25
2018-07-30T19:44:39.306Z,46.50
2018-07-30T19:47:08.057Z,47.39
2018-07-30T19:49:42.271Z,47.83
2018-07-30T19:52:12.290Z,48.41
2018-07-30T19:54:52.690Z,48.02
2018-07-30T19:57:30.535Z,48.55
2018-07-30T20:00:04.435Z,48.44
2018-07-30T20:02:33.394Z,48.85
2018-07-30T20:05:09.063Z,48.75
2018-07-30T20:07:45.256Z,50.47
2018-07-30T20:10:17.025Z,50.05
2018-07-30T20:12:46.252Z,49.47
2018-07-30T20:15:27.154Z,50.14
2018-07-30T20:17:55.977Z,50.63
2018-07-30T20:20:45.899Z,51.39
2018-07-30T20:23:20.543Z,52.77
2018-07-30T20:28:40.740Z,53.39
2018-07-30T20:31:17.267Z,53.02
2018-07-30T20:33:47.838Z,53.02
2018-07-30T20:38:58.152Z,52.74
2018-07-30T20:41:29.710Z,54.27
2018-07-30T20:43:59.268Z,53.50
2018-07-30T20:46:27.783Z,54.21
2018-07-30T20:48:59.715Z,55.77
2018-07-30T20:51:30.140Z,55.60
2018-07-30T20:53:59.938Z,54.75
2018-07-30T20:56:29.924Z,55.08
2018-07-30T20:58:59.146Z,56.29
2018-07-30T21:01:31.042Z,55.79
2018-07-30T21:04:08.744Z,55.27
2018-07-30T21:06:42.322Z,55.13
2018-07-30T21:11:55.611Z,55.32
2018-07-30T21:14:47.724Z,56.24
2018-07-30T21:17:17.690Z,56.39
2018-07-30T21:19:52.660Z,56.81
2018-07-30T21:22:20.999Z,57.72
2018-07-30T21:25:23.836Z,57.25
2018-07-30T21:28:19.568Z,57.72
2018-07-30T21:33:47.595Z,58.05
2018-07-30T21:36:24.589Z,58.89
2018-07-30T21:38:57.379Z,58.28
2018-07-30T21:41:33.376Z,59.20
2018-07-30T21:44:10.944Z,59.24
2018-07-30T21:46:41.703Z,59.45
2018-07-30T21:49:09.769Z,60.07
2018-07-30T21:51:37.836Z,60.78
2018-07-30T21:54:06.149Z,60.46
2018-07-30T21:56:34.148Z,59.34
2018-07-30T21:59:02.281Z,60.75
2018-07-30T22:01:30.339Z,59.59
2018-07-30T22:03:59.478Z,59.53
2018-07-30T22:06:27.543Z,59.60
2018-07-30T22:08:57.237Z,60.80
2018-07-30T22:11:25.546Z,59.79
2018-07-30T22:13:53.623Z,60.99
2018-07-30T22:16:21.702Z,62.01
2018-07-30T22:18:49.783Z,60.81
2018-07-30T22:21:17.924Z,61.07
2018-07-30T22:23:45.990Z,62.22
2018-07-30T22:26:14.060Z,62.23
2018-07-30T22:28:42.181Z,62.00
2018-07-30T22:31:10.308Z,61.90
2018-07-30T22:33:38.415Z,62.29
2018-07-30T22:36:06.487Z,61.85
2018-07-30T22:38:34.531Z,62.31
2018-07-30T22:41:02.651Z,62.87
2018-07-30T22:43:30.745Z,64.27
2018-07-30T22:45:58.891Z,62.82
2018-07-30T22:48:26.930Z,63.53
2018-07-30T22:50:55.427Z,63.61
2018-07-30T22:53:23.494Z,64.24
2018-07-30T22:55:51.603Z,63.90
2018-07-30T22:58:19.671Z,64.61
2018-07-30T23:00:48.674Z,64.69
2018-07-30T23:03:16.753Z,64.78
2018-07-30T23:05:44.787Z,64.67
2018-07-30T23:08:12.849Z,65.40
2018-07-30T23:10:41.740Z,65.41
2018-07-30T23:13:09.793Z,65.58
2018-07-30T23:15:37.951Z,64.63
2018-07-30T23:18:06.044Z,65.38
2018-07-30T23:20:34.207Z,65.36
2018-07-30T23:23:02.305Z,65.91
2018-07-30T23:25:30.395Z,66.07
2018-07-30T23:27:58.518Z,66.58
2018-07-30T23:30:26.576Z,66.81
2018-07-30T23:32:54.651Z,66.60
2018-07-30T23:35:22.715Z,66.74
2018-07-30T23:37:50.985Z,66.04
2018-07-30T23:40:19.070Z,66.83
2018-07-30T23:42:47.227Z,67.03
2018-07-30T23:45:15.292Z,67.23
2018-07-30T23:47:43.357Z,67.62
2018-07-30T23:50:11.431Z,67.90
2018-07-30T23:52:39.494Z,68.15
2018-07-30T23:55:07.637Z,68.51
2018-07-30T23:57:35.622Z,68.36
